Time;durP1;ratioP1;P1;durP2;ratioP2;P2;SDS_P1;SDS_P2;PMS_P1;PMS_P2;Temp;Humidity;BMP_temperature;BMP_pressure;BME280_temperature;BME280_humidity;BME280_pressure;Samples;Min_cycle;Max_cycle;Signal;HPM_P1;HPM_P2
2023/05/02 00:01:53;;;;;;;7.20;6.50;;;;;;;10.82;90.50;102113.25;5015822;28;20210;-76
2023/05/02 00:04:19;;;;;;;9.13;7.00;;;;;;;10.82;90.01;102118.47;5015577;28;20026;-76
2023/05/02 00:06:45;;;;;;;7.93;7.13;;;;;;;10.81;90.09;102118.53;5016638;28;20032;-76
2023/05/02 00:09:11;;;;;;;9.77;7.93;;;;;;;10.83;90.24;102124.59;5016614;28;20248;-76
2023/05/02 00:11:36;;;;;;;7.57;6.85;;;;;;;10.81;90.17;102121.16;5016663;28;20072;-76
2023/05/02 00:14:02;;;;;;;8.60;6.82;;;;;;;10.82;89.84;102122.88;5016767;28;20042;-76
2023/05/02 00:16:27;;;;;;;10.45;8.68;;;;;;;10.81;90.16;102126.41;5016709;28;20053;-76
2023/05/02 00:18:53;;;;;;;11.43;9.23;;;;;;;10.77;90.66;102122.97;5016870;28;20072;-76
2023/05/02 00:21:18;;;;;;;11.57;8.82;;;;;;;10.76;91.09;102122.09;5019331;28;20398;-76
2023/05/02 00:23:43;;;;;;;9.18;7.93;;;;;;;10.75;90.94;102119.50;5019643;28;20042;-76
2023/05/02 00:26:09;;;;;;;10.05;9.02;;;;;;;10.75;90.98;102127.38;5020310;28;20046;-76
2023/05/02 00:28:35;;;;;;;11.25;8.45;;;;;;;10.74;91.07;102121.28;5035126;28;20057;-76
2023/05/02 00:31:01;;;;;;;16.42;9.52;;;;;;;10.73;91.53;102129.16;5020672;28;20245;-76
2023/05/02 00:33:26;;;;;;;11.85;8.88;;;;;;;10.71;91.91;102126.59;5020251;28;20056;-76
2023/05/02 00:35:52;;;;;;;10.73;8.10;;;;;;;10.71;92.18;102128.34;5018776;28;20108;-76
2023/05/02 00:38:17;;;;;;;12.98;8.50;;;;;;;10.70;92.49;102124.00;5019964;28;20065;-76
2023/05/02 00:40:47;;;;;;;15.15;8.02;;;;;;;10.70;92.58;102124.00;5019690;28;20049;-76
2023/05/02 00:43:13;;;;;;;10.65;7.13;;;;;;;10.72;92.60;102124.84;5026750;28;20064;-76
2023/05/02 00:45:42;;;;;;;10.07;6.28;;;;;;;10.70;92.71;102127.47;5019627;28;20041;-76
2023/05/02 00:48:08;;;;;;;10.52;5.90;;;;;;;10.70;92.63;102129.25;5019984;28;20061;-76
2023/05/02 00:50:42;;;;;;;11.52;5.47;;;;;;;10.68;92.84;102121.41;5019394;28;20042;-76
2023/05/02 00:53:09;;;;;;;7.03;4.53;;;;;;;10.65;93.32;102120.59;5015526;28;20033;-76
2023/05/02 00:55:35;;;;;;;5.18;4.10;;;;;;;10.65;93.14;102131.09;5026213;28;20048;-76
2023/05/02 00:58:15;;;;;;;10.25;4.05;;;;;;;10.62;93.09;102125.91;5034234;28;20021;-76
2023/05/02 01:04:41;;;;;;;9.50;3.92;;;;;;;10.56;93.19;102143.47;4566418;28;20056;-74
2023/05/02 01:07:06;;;;;;;5.03;2.95;;;;;;;10.53;93.33;102138.31;5020855;28;20399;-74
2023/05/02 01:10:02;;;;;;;4.50;3.30;;;;;;;10.52;93.26;102139.19;5019445;28;20034;-74
2023/05/02 01:12:44;;;;;;;8.82;3.80;;;;;;;10.52;93.00;102140.94;5019249;28;20041;-74
2023/05/02 01:15:15;;;;;;;4.30;3.50;;;;;;;10.55;93.06;102153.97;4999833;28;20037;-74
2023/05/02 01:17:42;;;;;;;12.65;4.13;;;;;;;10.54;93.54;102155.72;5007176;28;20037;-74
2023/05/02 01:20:12;;;;;;;9.15;4.05;;;;;;;10.51;94.15;102158.44;5018433;28;20034;-74
2023/05/02 01:22:39;;;;;;;13.98;3.25;;;;;;;10.45;93.26;102153.28;5018008;28;20034;-74
2023/05/02 01:25:22;;;;;;;13.15;3.03;;;;;;;10.37;92.52;102161.31;5018046;28;20037;-74
2023/05/02 01:27:53;;;;;;;9.90;2.80;;;;;;;10.41;92.32;102162.09;5018857;28;20229;-74
2023/05/02 01:30:20;;;;;;;6.55;2.40;;;;;;;10.37;91.98;102158.69;5018735;28;20061;-74
2023/05/02 01:32:48;;;;;;;10.32;2.90;;;;;;;10.35;92.31;102162.19;5018679;28;20065;-74
2023/05/02 01:35:16;;;;;;;7.90;2.22;;;;;;;10.35;91.60;102164.81;5018626;28;20034;-74
2023/05/02 01:37:44;;;;;;;7.45;2.90;;;;;;;10.32;91.72;102168.38;5018349;28;20108;-74
2023/05/02 01:40:12;;;;;;;11.00;2.45;;;;;;;10.29;91.41;102165.78;5018488;28;20037;-74
2023/05/02 01:42:41;;;;;;;4.75;1.90;;;;;;;10.30;91.48;102166.66;5017762;28;20046;-74
2023/05/02 01:45:08;;;;;;;7.18;2.25;;;;;;;10.30;91.26;102179.75;5009146;28;20068;-74
2023/05/02 01:47:35;;;;;;;4.97;2.13;;;;;;;10.31;91.38;102182.34;5018336;28;20065;-74
2023/05/02 01:50:04;;;;;;;8.43;2.13;;;;;;;10.33;91.49;102184.94;5018486;28;20352;-74
2023/05/02 01:52:30;;;;;;;;;;;;;;;10.33;91.41;102190.19;5018985;28;20255;-74
2023/05/02 01:54:59;;;;;;;12.15;3.53;;;;;;;10.32;91.38;102191.09;5018762;28;19925;-74
2023/05/02 01:57:25;;;;;;;18.15;3.13;;;;;;;10.32;91.02;102196.31;5018384;28;20391;-74
2023/05/02 01:59:53;;;;;;;13.88;3.40;;;;;;;10.30;91.58;102203.31;5018334;28;20060;-74
2023/05/02 02:02:20;;;;;;;15.50;3.28;;;;;;;10.31;90.73;102203.28;5017112;28;20113;-74
2023/05/02 02:04:47;;;;;;;9.98;2.53;;;;;;;10.26;90.41;102202.50;5018347;28;20038;-74
2023/05/02 02:07:13;;;;;;;12.77;3.03;;;;;;;10.24;90.56;102198.16;5018319;28;20056;-74
2023/05/02 02:09:39;;;;;;;7.72;2.92;;;;;;;10.22;90.52;102205.19;5017994;28;20372;-74
2023/05/02 02:12:11;;;;;;;7.47;2.45;;;;;;;10.19;90.47;102216.59;5017148;28;20092;-74
2023/05/02 02:14:38;;;;;;;9.07;2.55;;;;;;;10.15;89.71;102214.88;5017699;28;20061;-74
2023/05/02 02:17:21;;;;;;;7.50;2.40;;;;;;;10.13;90.11;102216.66;5018378;28;20048;-74
2023/05/02 02:19:49;;;;;;;2.88;2.15;;;;;;;10.13;89.94;102227.16;5018088;28;20064;-74
2023/05/02 02:22:18;;;;;;;9.77;2.72;;;;;;;10.09;89.20;102223.72;5017999;28;20045;-74
2023/05/02 02:24:46;;;;;;;6.47;3.13;;;;;;;10.10;89.29;102235.06;5017943;28;20543;-74
2023/05/02 02:27:12;;;;;;;7.05;2.47;;;;;;;10.09;88.93;102242.03;5018114;28;20034;-74
2023/05/02 02:29:37;;;;;;;5.03;2.00;;;;;;;10.08;88.83;102242.09;5016655;28;20095;-74
2023/05/02 02:32:02;;;;;;;7.90;2.45;;;;;;;10.10;88.57;102235.06;5017707;28;20336;-74
2023/05/02 02:34:28;;;;;;;9.40;2.40;;;;;;;10.07;88.59;102240.34;5018148;28;20037;-73
2023/05/02 02:37:11;;;;;;;9.88;2.60;;;;;;;10.04;88.39;102243.00;5017585;28;20056;-74
2023/05/02 02:39:42;;;;;;;6.85;1.90;;;;;;;10.04;88.28;102237.78;5017470;28;20368;-74
2023/05/02 02:42:26;;;;;;;6.10;1.70;;;;;;;10.02;88.19;102237.78;5016757;28;21078;-74
2023/05/02 02:45:00;;;;;;;6.15;1.70;;;;;;;10.03;88.38;102241.28;5017512;28;20288;-74
2023/05/02 02:47:40;;;;;;;12.40;2.20;;;;;;;9.96;87.65;102241.38;5014329;28;20095;-74
2023/05/02 02:50:24;;;;;;;7.20;2.05;;;;;;;9.96;87.13;102243.13;5017856;28;20029;-74
2023/05/02 02:52:55;;;;;;;6.05;2.00;;;;;;;9.89;86.31;102244.97;5016864;28;20303;-74
2023/05/02 02:55:44;;;;;;;4.63;1.75;;;;;;;9.87;86.23;102245.91;5017694;28;20105;-74
2023/05/02 02:58:24;;;;;;;9.35;1.58;;;;;;;9.83;86.23;102254.69;5017521;28;20402;-74
2023/05/02 03:00:51;;;;;;;6.90;1.85;;;;;;;9.82;85.55;102261.66;5017128;28;20057;-74
2023/05/02 03:03:21;;;;;;;3.88;1.52;;;;;;;9.80;85.82;102263.44;5017897;28;20404;-74
2023/05/02 03:05:47;;;;;;;4.38;1.48;;;;;;;9.80;85.77;102256.47;5017183;28;20341;-74
2023/05/02 03:08:12;;;;;;;3.58;1.10;;;;;;;9.82;85.35;102263.41;5014445;28;20050;-74
2023/05/02 03:10:38;;;;;;;10.52;1.40;;;;;;;9.79;84.95;102273.03;5013374;28;20248;-74
2023/05/02 03:13:03;;;;;;;4.90;1.23;;;;;;;9.79;85.09;102275.66;5017402;28;20045;-74
2023/05/02 03:15:47;;;;;;;7.90;1.67;;;;;;;9.77;84.03;102266.09;5017141;28;20065;-74
2023/05/02 03:18:12;;;;;;;3.67;1.40;;;;;;;9.74;83.34;102271.38;5017766;28;20030;-74
2023/05/02 03:20:38;;;;;;;4.90;1.50;;;;;;;9.72;83.38;102283.63;5016883;28;20325;-74
2023/05/02 03:23:04;;;;;;;3.20;1.20;;;;;;;9.72;83.40;102279.25;5017822;28;20026;-74
2023/05/02 03:25:29;;;;;;;1.67;0.90;;;;;;;9.72;83.63;102291.47;5017213;28;20045;-74
2023/05/02 03:27:56;;;;;;;2.58;1.17;;;;;;;9.71;83.51;102287.09;5016972;28;20249;-74
2023/05/02 03:30:22;;;;;;;9.40;1.73;;;;;;;9.71;83.42;102290.56;5017376;28;20069;-74
2023/05/02 03:32:47;;;;;;;4.45;1.30;;;;;;;9.71;83.44;102292.34;5017024;28;20042;-74
2023/05/02 03:35:13;;;;;;;2.28;1.25;;;;;;;9.72;83.91;102288.84;5016160;28;20367;-74
2023/05/02 03:37:38;;;;;;;8.55;1.75;;;;;;;9.69;83.27;102308.06;5017108;28;20383;-74
2023/05/02 03:40:04;;;;;;;3.65;1.48;;;;;;;9.70;83.33;102306.31;5027771;28;20407;-74
2023/05/02 03:42:29;;;;;;;6.15;1.60;;;;;;;9.68;83.47;102306.34;5017388;28;20041;-74
2023/05/02 03:44:55;;;;;;;4.70;1.30;;;;;;;9.67;83.42;102299.38;5016508;28;20045;-74
2023/05/02 03:47:20;;;;;;;4.63;1.33;;;;;;;9.67;83.88;102309.81;5017120;28;20362;-74
2023/05/02 03:49:45;;;;;;;6.35;2.00;;;;;;;9.64;83.59;102317.75;5016928;28;20034;-74
2023/05/02 03:52:11;;;;;;;4.82;1.30;;;;;;;9.63;83.56;102320.38;5016915;28;20285;-74
2023/05/02 03:54:37;;;;;;;7.18;1.48;;;;;;;9.65;84.16;102321.22;5018629;28;20045;-74
2023/05/02 03:57:03;;;;;;;7.93;1.60;;;;;;;9.63;83.45;102323.84;5020918;28;20116;-74
2023/05/02 03:59:32;;;;;;;4.75;1.58;;;;;;;9.63;83.36;102322.97;5020626;28;20045;-74
2023/05/02 04:01:57;;;;;;;4.05;1.17;;;;;;;9.59;82.18;102332.63;5020851;28;20343;-74
2023/05/02 04:04:23;;;;;;;7.88;1.40;;;;;;;9.55;81.41;102330.91;5020405;28;20064;-74
2023/05/02 04:06:48;;;;;;;5.50;1.20;;;;;;;9.52;81.85;102329.22;5020205;28;20072;-74
2023/05/02 04:09:14;;;;;;;7.05;1.58;;;;;;;9.49;81.19;102342.31;5020510;28;20050;-74
2023/05/02 04:11:40;;;;;;;6.25;1.52;;;;;;;9.47;81.30;102340.63;5020031;28;20069;-74
2023/05/02 04:14:06;;;;;;;6.25;1.40;;;;;;;9.43;81.26;102338.91;5023889;28;20041;-74
2023/05/02 04:16:31;;;;;;;8.52;1.27;;;;;;;9.41;81.48;102336.31;5020362;28;20063;-74
2023/05/02 04:18:57;;;;;;;4.97;1.30;;;;;;;9.38;80.93;102347.66;5020449;28;20045;-74
2023/05/02 04:21:22;;;;;;;10.82;1.77;;;;;;;9.35;81.29;102344.22;5020287;28;20045;-74
2023/05/02 04:23:47;;;;;;;2.50;1.30;;;;;;;9.31;81.05;102358.22;5019201;28;20037;-74
2023/05/02 04:26:13;;;;;;;5.05;1.13;;;;;;;9.31;81.50;102361.69;5019963;28;20041;-74
2023/05/02 04:28:39;;;;;;;3.90;1.20;;;;;;;9.33;81.96;102359.06;5019413;28;20100;-74
2023/05/02 04:31:05;;;;;;;4.22;1.50;;;;;;;9.35;82.40;102362.53;5020025;28;20045;-74
2023/05/02 04:33:30;;;;;;;3.15;1.00;;;;;;;9.36;82.35;102374.72;5020758;28;20116;-74
2023/05/02 04:35:56;;;;;;;5.18;1.42;;;;;;;9.37;81.88;102373.84;5019895;28;20210;-74
2023/05/02 04:38:21;;;;;;;9.98;1.90;;;;;;;9.36;81.45;102377.34;5019855;28;20065;-74
2023/05/02 04:40:50;;;;;;;6.03;1.65;;;;;;;9.35;81.64;102375.59;5018673;28;20049;-74
2023/05/02 04:43:15;;;;;;;4.45;1.50;;;;;;;9.35;81.80;102379.09;5017930;28;20326;-74
2023/05/02 04:45:41;;;;;;;11.00;1.45;;;;;;;9.32;81.28;102389.56;5019282;28;20076;-74
2023/05/02 04:48:06;;;;;;;6.00;1.35;;;;;;;9.29;80.96;102381.75;5019711;28;20215;-74
2023/05/02 04:50:31;;;;;;;5.75;1.25;;;;;;;9.30;80.70;102385.25;5019699;28;20056;-74
2023/05/02 04:52:57;;;;;;;10.90;2.13;;;;;;;9.29;81.33;102389.59;5019793;28;20049;-74
2023/05/02 04:55:22;;;;;;;4.60;1.35;;;;;;;9.27;80.95;102393.97;5020068;28;20060;-74
2023/05/02 04:57:48;;;;;;;9.80;2.15;;;;;;;9.26;81.27;102394.88;5018424;28;20281;-74
2023/05/02 05:00:14;;;;;;;4.20;1.40;;;;;;;9.27;81.21;102398.34;5018223;28;20277;-74
2023/05/02 05:02:39;;;;;;;7.15;1.85;;;;;;;9.27;81.04;102401.81;5019039;28;20333;-74
2023/05/02 05:05:05;;;;;;;3.40;1.40;;;;;;;9.27;81.39;102398.34;5019061;28;20033;-74
2023/05/02 05:07:30;;;;;;;6.95;1.35;;;;;;;9.29;81.32;102399.19;5019026;28;20337;-74
2023/05/02 05:09:56;;;;;;;5.25;1.60;;;;;;;9.28;81.44;102411.41;5018761;28;20100;-74
2023/05/02 05:12:21;;;;;;;9.40;1.67;;;;;;;9.28;81.32;102410.53;5019196;28;20038;-74
2023/05/02 05:14:47;;;;;;;4.30;1.67;;;;;;;9.26;81.24;102413.19;5019391;28;20061;-74
2023/05/02 05:17:12;;;;;;;9.15;2.45;;;;;;;9.24;80.50;102412.34;5019242;28;20042;-74
2023/05/02 05:19:37;;;;;;;7.75;2.20;;;;;;;9.23;80.35;102416.69;5018499;28;20061;-74
2023/05/02 05:22:03;;;;;;;8.13;1.92;;;;;;;9.25;80.49;102418.44;5018267;28;20077;-74
2023/05/02 05:24:28;;;;;;;7.95;1.70;;;;;;;9.23;79.86;102426.28;5017548;28;20124;-74
2023/05/02 05:26:54;;;;;;;12.00;3.20;;;;;;;9.20;79.45;102424.56;5018622;28;20052;-74
2023/05/02 05:29:19;;;;;;;14.65;3.10;;;;;;;9.21;79.93;102430.66;5003846;28;20056;-74
2023/05/02 05:31:44;;;;;;;8.82;2.67;;;;;;;9.19;80.04;102432.44;5018286;28;20033;-74
2023/05/02 05:34:10;;;;;;;8.48;2.15;;;;;;;9.16;80.30;102432.44;5018916;28;20080;-74
2023/05/02 05:36:37;;;;;;;15.48;2.53;;;;;;;9.14;80.03;102439.44;5018218;28;20025;-74
2023/05/02 05:39:03;;;;;;;9.93;2.28;;;;;;;9.13;79.97;102442.91;5018274;28;20361;-74
2023/05/02 05:41:29;;;;;;;12.60;1.75;;;;;;;9.09;79.81;102454.28;5018768;28;20056;-74
2023/05/02 05:43:55;;;;;;;8.75;1.67;;;;;;;9.07;79.85;102456.91;5016171;28;20297;-74
2023/05/02 05:46:20;;;;;;;5.55;1.77;;;;;;;9.08;80.10;102469.13;5016508;28;20060;-74
2023/05/02 05:48:46;;;;;;;6.97;2.10;;;;;;;9.08;79.10;102471.72;5018314;28;20046;-74
2023/05/02 05:51:11;;;;;;;6.03;2.33;;;;;;;9.07;77.44;102476.97;5017914;28;20045;-74
2023/05/02 05:53:36;;;;;;;9.30;2.00;;;;;;;9.05;77.41;102476.09;5017948;28;20048;-74
2023/05/02 05:56:12;;;;;;;5.75;2.47;;;;;;;9.02;77.45;102484.81;5019022;28;20273;-74
2023/05/02 05:58:38;;;;;;;6.68;2.03;;;;;;;9.02;77.41;102484.81;5017933;28;20034;-74
2023/05/02 06:01:04;;;;;;;7.05;1.70;;;;;;;9.00;76.85;102486.59;5018453;28;20268;-74
2023/05/02 06:03:29;;;;;;;6.38;1.83;;;;;;;8.98;77.13;102493.56;5016075;28;20038;-74
2023/05/02 06:05:55;;;;;;;6.80;1.80;;;;;;;8.98;77.16;102497.03;5017594;28;20072;-74
2023/05/02 06:08:20;;;;;;;7.13;2.50;;;;;;;9.00;77.22;102503.16;5017451;28;20072;-74
2023/05/02 06:10:46;;;;;;;7.18;2.20;;;;;;;9.02;78.08;102506.63;5017179;28;20061;-74
2023/05/02 06:13:11;;;;;;;7.35;1.85;;;;;;;9.05;77.68;102504.84;5007519;28;20240;-74
2023/05/02 06:15:36;;;;;;;6.75;1.77;;;;;;;9.05;77.67;102504.84;5018087;28;20045;-74
2023/05/02 06:18:02;;;;;;;9.77;2.15;;;;;;;9.07;77.99;102505.72;5017733;28;20367;-74
2023/05/02 06:20:27;;;;;;;4.80;1.88;;;;;;;9.08;77.59;102512.66;5018396;28;20046;-74
2023/05/02 06:22:53;;;;;;;6.38;2.28;;;;;;;9.08;76.69;102517.88;5017720;28;20029;-74
2023/05/02 06:25:18;;;;;;;4.97;2.25;;;;;;;9.08;76.59;102513.53;5018513;28;20349;-74
2023/05/02 06:27:43;;;;;;;9.25;1.83;;;;;;;9.09;77.23;102524.84;5016500;28;20140;-74
2023/05/02 06:30:09;;;;;;;8.05;2.33;;;;;;;9.11;77.08;102523.94;5018181;28;20042;-74
2023/05/02 06:32:35;;;;;;;7.20;2.25;;;;;;;9.12;77.50;102528.31;5017765;28;20046;-74
2023/05/02 06:35:00;;;;;;;5.82;2.25;;;;;;;9.15;77.52;102532.63;5018325;28;20057;-74
2023/05/02 06:37:25;;;;;;;6.10;1.90;;;;;;;9.15;76.91;102537.88;5016871;28;20043;-74
2023/05/02 06:39:51;;;;;;;14.80;2.30;;;;;;;9.13;76.21;102544.84;5017474;28;20068;-74
2023/05/02 06:42:16;;;;;;;11.38;2.53;;;;;;;9.12;75.30;102543.13;5018249;28;20119;-74
2023/05/02 06:44:41;;;;;;;8.18;2.05;;;;;;;9.09;74.98;102549.22;5019973;28;20045;-74
2023/05/02 06:47:07;;;;;;;10.15;2.25;;;;;;;9.07;75.12;102558.84;5026655;28;20431;-74
2023/05/02 06:49:32;;;;;;;9.98;2.20;;;;;;;9.05;74.70;102560.59;5017598;28;20046;-74
2023/05/02 06:51:58;;;;;;;10.13;1.95;;;;;;;9.06;75.12;102561.47;5035285;28;20336;-74
2023/05/02 06:54:23;;;;;;;5.03;2.08;;;;;;;9.06;74.43;102564.06;5037344;28;20049;-74
2023/05/02 06:56:49;;;;;;;12.38;2.17;;;;;;;9.03;74.21;102573.66;5022554;28;20238;-74
2023/05/02 06:59:15;;;;;;;12.05;2.40;;;;;;;9.04;74.97;102571.94;5017233;28;20038;-74
2023/05/02 07:01:42;;;;;;;7.72;2.25;;;;;;;9.06;75.70;102570.19;5016681;28;20363;-74
2023/05/02 07:04:07;;;;;;;7.93;2.05;;;;;;;9.05;74.54;102573.66;5017520;28;20091;-74
2023/05/02 07:06:33;;;;;;;13.32;2.15;;;;;;;9.06;74.29;102571.91;5016412;28;20045;-74
2023/05/02 07:08:58;;;;;;;5.88;2.60;;;;;;;9.05;73.56;102578.03;5014058;28;20064;-74
2023/05/02 07:11:25;;;;;;;5.88;2.75;;;;;;;9.08;73.30;102578.00;5017037;28;20095;-74
2023/05/02 07:13:50;;;;;;;8.10;2.17;;;;;;;9.10;73.55;102578.88;5016647;28;20034;-74
2023/05/02 07:16:15;;;;;;;12.95;2.28;;;;;;;9.12;73.16;102575.38;5018029;28;20049;-74
2023/05/02 07:18:42;;;;;;;8.60;2.00;;;;;;;9.18;72.93;102577.91;5016073;28;20101;-74
2023/05/02 07:21:07;;;;;;;6.15;1.50;;;;;;;9.26;72.25;102579.63;5016440;28;20034;-74
2023/05/02 07:23:33;;;;;;;7.68;1.58;;;;;;;9.29;71.96;102579.59;5014590;28;20050;-74
2023/05/02 07:25:59;;;;;;;8.52;2.03;;;;;;;9.29;71.43;102575.22;5010220;28;20049;-74
2023/05/02 07:28:24;;;;;;;9.38;2.30;;;;;;;9.34;71.74;102585.66;5008511;28;20398;-74
2023/05/02 07:30:50;;;;;;;4.93;1.67;;;;;;;9.36;71.59;102586.53;5017794;28;20038;-74
2023/05/02 07:33:15;;;;;;;6.57;1.65;;;;;;;9.37;71.93;102598.72;5010197;28;20073;-74
2023/05/02 07:35:41;;;;;;;11.63;2.28;;;;;;;9.34;72.04;102601.34;5016745;28;20323;-74
2023/05/02 07:38:06;;;;;;;10.40;1.70;;;;;;;9.36;72.57;102602.22;5017091;28;20046;-74
2023/05/02 07:40:32;;;;;;;13.10;2.05;;;;;;;9.34;72.02;102611.81;5015398;28;20038;-74
2023/05/02 07:42:59;;;;;;;9.00;2.40;;;;;;;9.32;72.63;102610.97;5020436;28;20276;-74
2023/05/02 07:45:25;;;;;;;11.38;2.00;;;;;;;9.30;72.76;102612.72;5017006;28;20049;-74
2023/05/02 07:47:50;;;;;;;3.97;1.75;;;;;;;9.29;72.85;102618.81;5011227;28;20099;-74
2023/05/02 07:50:16;;;;;;;9.15;1.73;;;;;;;9.25;71.81;102620.59;5010559;28;20356;-74
2023/05/02 07:52:41;;;;;;;7.53;1.80;;;;;;;9.19;70.30;102618.03;5010797;28;20045;-74
2023/05/02 07:55:07;;;;;;;6.38;1.42;;;;;;;9.15;70.72;102621.50;5014907;28;20038;-74
2023/05/02 07:57:33;;;;;;;4.00;1.67;;;;;;;9.14;71.00;102625.03;5011857;28;20275;-74
2023/05/02 07:59:58;;;;;;;5.82;1.80;;;;;;;9.15;71.05;102629.34;5016617;28;20084;-74
2023/05/02 08:02:24;;;;;;;6.90;1.63;;;;;;;9.20;70.76;102635.44;5015939;28;20253;-74
2023/05/02 08:04:50;;;;;;;9.07;1.88;;;;;;;9.20;69.51;102632.81;5019403;28;20038;-74
2023/05/02 08:07:16;;;;;;;6.05;1.70;;;;;;;9.18;68.52;102635.44;5017024;28;20042;-74
2023/05/02 08:09:41;;;;;;;7.45;1.30;;;;;;;9.15;68.22;102634.56;5020716;28;20050;-74
2023/05/02 08:12:07;;;;;;;4.35;1.65;;;;;;;9.16;68.49;102637.19;5019261;28;20108;-74
2023/05/02 08:14:32;;;;;;;5.93;1.80;;;;;;;9.16;68.60;102645.03;5019870;28;20295;-74
2023/05/02 08:16:58;;;;;;;3.17;1.58;;;;;;;9.15;68.54;102643.31;5018155;28;20084;-74
2023/05/02 08:19:24;;;;;;;5.65;1.50;;;;;;;9.21;68.82;102637.19;5018336;28;20376;-74
2023/05/02 08:21:49;;;;;;;7.00;1.38;;;;;;;9.25;68.43;102644.13;5019007;28;20053;-74
2023/05/02 08:24:15;;;;;;;7.50;1.75;;;;;;;9.28;68.02;102644.09;5018457;28;20288;-74
2023/05/02 08:26:40;;;;;;;4.30;1.73;;;;;;;9.27;67.10;102644.09;5018929;28;20381;-74
2023/05/02 08:29:05;;;;;;;13.02;1.55;;;;;;;9.25;66.47;102651.09;5018725;28;20139;-74
2023/05/02 08:31:31;;;;;;;7.65;1.88;;;;;;;9.26;66.31;102652.81;5019118;28;20065;-74
2023/05/02 08:33:56;;;;;;;6.55;1.60;;;;;;;9.25;66.01;102653.72;5018485;28;20364;-74
2023/05/02 08:36:22;;;;;;;4.10;1.63;;;;;;;9.28;66.15;102654.56;5018798;28;20073;-74
2023/05/02 08:38:48;;;;;;;5.63;1.40;;;;;;;9.31;65.37;102667.59;5018363;28;20046;-74
2023/05/02 08:41:18;;;;;;;8.18;1.40;;;;;;;9.37;64.03;102674.56;5018725;28;20034;-74
2023/05/02 08:43:44;;;;;;;3.22;1.05;;;;;;;9.45;64.36;102674.50;5018284;28;20044;-74
2023/05/02 08:46:12;;;;;;;8.80;1.33;;;;;;;9.45;61.19;102677.97;5010673;28;20065;-74
2023/05/02 08:48:41;;;;;;;7.70;1.38;;;;;;;9.48;61.31;102675.34;5010218;28;20152;-74
2023/05/02 08:51:12;;;;;;;6.38;1.38;;;;;;;9.48;60.87;102677.97;5019788;28;20580;-74
2023/05/02 08:53:39;;;;;;;4.18;1.40;;;;;;;9.48;59.85;102677.06;5018298;28;20025;-74
2023/05/02 08:56:09;;;;;;;4.85;1.63;;;;;;;9.51;60.42;102677.94;5019074;28;20076;-74
2023/05/02 08:58:36;;;;;;;5.18;1.75;;;;;;;9.56;60.95;102678.75;5018979;28;20087;-74
2023/05/02 09:01:07;;;;;;;3.80;1.33;;;;;;;9.60;59.34;102683.13;5019049;28;20288;-74
2023/05/02 09:03:34;;;;;;;3.50;1.30;;;;;;;9.63;59.35;102682.22;5018133;28;20041;-74
2023/05/02 09:06:02;;;;;;;6.88;1.73;;;;;;;9.68;59.77;102683.06;5018552;28;20260;-74
2023/05/02 09:08:27;;;;;;;1.88;1.17;;;;;;;9.70;59.13;102688.28;5017646;28;20044;-74
2023/05/02 09:10:54;;;;;;;4.25;1.15;;;;;;;9.75;59.37;102684.75;5016824;28;20069;-74
2023/05/02 09:13:30;;;;;;;5.03;1.20;;;;;;;9.80;59.36;102701.28;5013298;28;20072;-74
2023/05/02 09:16:03;;;;;;;1.92;1.08;;;;;;;9.87;59.47;102701.22;5013565;28;20115;-74
2023/05/02 09:18:31;;;;;;;3.33;1.70;;;;;;;9.94;59.20;102697.69;5016169;28;20264;-74
2023/05/02 09:21:02;;;;;;;3.00;1.10;;;;;;;9.98;59.44;102702.84;5014449;28;20061;-74
2023/05/02 09:23:40;;;;;;;3.05;1.23;;;;;;;10.04;59.49;102696.72;5012355;28;20237;-74
2023/05/02 09:26:14;;;;;;;3.38;2.05;;;;;;;10.09;58.52;102689.69;5016969;28;20046;-74
2023/05/02 09:28:42;;;;;;;2.85;1.25;;;;;;;10.13;58.99;102688.78;5011620;28;20136;-74
2023/05/02 09:31:10;;;;;;;3.57;1.23;;;;;;;10.19;57.87;102703.56;5018431;28;20057;-74
2023/05/02 09:33:36;;;;;;;4.70;1.50;;;;;;;10.17;56.95;102700.97;5017718;28;20033;-74
2023/05/02 09:36:02;;;;;;;4.60;1.40;;;;;;;10.22;57.59;102707.91;5018347;28;20248;-74
2023/05/02 09:38:28;;;;;;;4.22;1.58;;;;;;;10.25;57.50;102700.03;5017351;28;20042;-74
2023/05/02 09:40:56;;;;;;;4.50;1.65;;;;;;;10.30;57.78;102700.84;5015498;28;20264;-74
2023/05/02 09:43:22;;;;;;;4.05;1.92;;;;;;;10.34;57.83;102719.16;5010318;28;20034;-74
2023/05/02 09:46:03;;;;;;;6.18;1.50;;;;;;;10.41;58.72;102712.13;5013040;28;20164;-74
2023/05/02 09:48:29;;;;;;;2.78;1.58;;;;;;;10.47;58.71;102714.66;5016590;28;20269;-74
2023/05/02 09:50:56;;;;;;;5.57;1.90;;;;;;;10.53;58.50;102718.97;5017606;28;20073;-74
2023/05/02 09:53:24;;;;;;;3.35;1.23;;;;;;;10.54;57.80;102720.72;5016340;28;20202;-74
2023/05/02 09:56:03;;;;;;;5.75;1.48;;;;;;;10.53;58.87;102717.25;5016926;28;20032;-74
2023/05/02 09:58:30;;;;;;;7.78;1.42;;;;;;;10.52;58.88;102733.81;5017259;28;20057;-74
2023/05/02 10:00:57;;;;;;;3.08;1.20;;;;;;;10.47;58.20;102725.16;5016711;28;20037;-74
2023/05/02 10:03:24;;;;;;;5.07;1.92;;;;;;;10.42;57.62;102726.94;5016952;28;20041;-74
2023/05/02 10:05:51;;;;;;;3.95;1.77;;;;;;;10.38;57.33;102730.47;5016488;28;20037;-74
2023/05/02 10:08:18;;;;;;;3.50;1.50;;;;;;;10.42;58.75;102733.94;5012026;28;20064;-74
2023/05/02 10:10:55;;;;;;;6.93;1.88;;;;;;;10.46;57.94;102723.44;5014822;28;20053;-74
2023/05/02 10:13:23;;;;;;;8.30;1.40;;;;;;;10.53;58.11;102727.72;5009607;28;20341;-74
2023/05/02 10:16:10;;;;;;;4.80;1.40;;;;;;;10.64;57.71;102724.09;5013026;28;20225;-74
2023/05/02 10:19:02;;;;;;;3.65;1.15;;;;;;;10.72;56.85;102730.13;5013104;28;20336;-74
2023/05/02 10:21:28;;;;;;;7.50;1.40;;;;;;;10.82;57.10;102723.03;5013828;28;20312;-74
2023/05/02 10:23:55;;;;;;;5.68;1.60;;;;;;;10.87;55.73;102736.94;5010433;28;20044;-74
2023/05/02 10:26:22;;;;;;;7.10;1.48;;;;;;;10.89;56.05;102729.94;5016580;28;20030;-74
2023/05/02 10:28:48;;;;;;;3.53;1.20;;;;;;;10.92;56.16;102725.53;5017447;28;20041;-74
2023/05/02 10:31:14;;;;;;;2.58;1.38;;;;;;;10.93;55.66;102721.13;5017037;28;20057;-74
2023/05/02 10:33:40;;;;;;;7.78;1.50;;;;;;;10.90;55.81;102727.31;5023450;28;20042;-74
2023/05/02 10:36:08;;;;;;;4.85;1.38;;;;;;;10.83;55.87;102735.25;5017455;28;20044;-74
2023/05/02 10:38:35;;;;;;;2.85;1.67;;;;;;;10.82;55.70;102726.50;5017264;28;20065;-74
2023/05/02 10:41:23;;;;;;;5.28;1.30;;;;;;;10.87;56.08;102734.34;5017743;28;20049;-74
2023/05/02 10:43:49;;;;;;;10.45;2.40;;;;;;;10.89;55.50;102730.78;5017497;28;20153;-74
2023/05/02 10:46:35;;;;;;;3.15;1.85;;;;;;;10.89;55.16;102732.56;5017989;28;20033;-74
2023/05/02 10:49:01;;;;;;;2.20;1.35;;;;;;;10.82;54.00;102729.13;5017495;28;20087;-74
2023/05/02 10:51:32;;;;;;;4.10;1.63;;;;;;;10.83;55.47;102732.63;5017747;28;20052;-74
2023/05/02 10:54:19;;;;;;;1.80;1.30;;;;;;;10.86;55.62;102729.97;5015725;28;20053;-74
2023/05/02 10:57:02;;;;;;;4.22;1.52;;;;;;;10.93;56.21;102732.50;5017176;28;20038;-74
2023/05/02 10:59:30;;;;;;;3.58;1.50;;;;;;;10.97;55.50;102730.72;5017407;28;20037;-74
2023/05/02 11:01:56;;;;;;;5.70;1.65;;;;;;;11.00;54.34;102729.81;5017113;28;20109;-74
2023/05/02 11:04:22;;;;;;;7.63;1.30;;;;;;;11.06;56.43;102741.09;5016799;28;20038;-74
2023/05/02 11:06:59;;;;;;;3.65;1.48;;;;;;;11.14;56.85;102748.84;5017240;28;20108;-74
2023/05/02 11:09:28;;;;;;;7.43;1.85;;;;;;;11.11;55.92;102747.16;5016809;28;20053;-74
2023/05/02 11:11:55;;;;;;;12.13;2.20;;;;;;;11.06;55.74;102745.44;5017352;28;20068;-74
2023/05/02 11:14:24;;;;;;;5.47;1.83;;;;;;;11.06;56.71;102742.81;5017670;28;20042;-74
2023/05/02 11:17:05;;;;;;;4.18;1.70;;;;;;;11.09;55.53;102737.56;5017215;28;20105;-74
2023/05/02 11:19:36;;;;;;;3.58;1.48;;;;;;;11.18;57.45;102737.44;5017268;28;20437;-74
2023/05/02 11:22:31;;;;;;;6.50;2.33;;;;;;;11.31;57.64;102743.38;5014423;28;20056;-74
2023/05/02 11:24:56;;;;;;;6.70;1.77;;;;;;;11.39;57.05;102743.28;5011823;28;20054;-74
2023/05/02 11:27:28;;;;;;;8.02;2.08;;;;;;;11.39;56.56;102749.41;5017022;28;20045;-74
2023/05/02 11:29:55;;;;;;;5.75;2.05;;;;;;;11.38;56.33;102749.44;5017270;28;20290;-74
2023/05/02 11:32:21;;;;;;;8.40;2.30;;;;;;;11.31;55.72;102751.25;5017523;28;20050;-74
2023/05/02 11:34:51;;;;;;;8.43;1.98;;;;;;;11.31;56.29;102748.63;5016679;28;20089;-74
2023/05/02 11:37:17;;;;;;;7.85;2.25;;;;;;;11.30;56.42;102754.78;5017324;28;20356;-74